North Providence, Rhode Island
Current Conditions -  °F | °C
As of 9:55 AM on Thursday 23 Oct 2014 (Local Time) from KSFZ Reporting Station
Overcast Overcast  
Wind Chill: 52°   Ceiling: 1000
Heat Index: 52°   Visibility: 10mi
Dew Point: 43°   Wind: 22mph
Humidity: 71%   Direction: 20°NNE
Pressure: 29.62"   Gusts: 28mph
Location:  41.86°N, 71.48°W
Report Text: KSFZ 231355Z 02019G24KT 10SM OVC010 11/06 A2962 RMK AO1
Loading
Personal Weather Stations






























Interactive Weather Map
Tropical Storm Tracking
New forecast layout! Learn more

10-Day Weather Forecast

Advertisements
Track Severe Weather on mobile